Lucketts, Virginia
Current Conditions -  °F | °C
As of 12:55 AM on Thursday 29 Jan 2015 (Local Time) from KJYO Reporting Station
Clear Clear  
Wind Chill: 17°   Ceiling: Unl
Heat Index: 23°   Visibility: 10mi
Dew Point: 12°   Wind: 5mph
Humidity: 63%   Direction: 350°N
Pressure: 30.34"   Gusts: NA
Location:  39.1846°N, 77.5476°W
Report Text: KJYO 290555Z AUTO 35004KT 10SM CLR M05/M11 A3034 RMK AO2
Loading
Personal Weather Stations






























Interactive Weather Map New forecast layout! Learn more

10-Day Weather Forecast

Advertisements
Track Severe Weather on mobile